Wetterdaten: Woche 25.01.10 - 31.01.10 (KW4)
Datum Zeit Temp. A. Feuchte A. Luftdruck Regen Wind Richtung Taupunkt Windchill Windben
25.01.2010 00:00 1,4 C 92 % 1020,9 hPa 0,4 l/m 0,0 km/h W 0,2 C 1,4 C 0,0 km/h
25.01.2010 01:00 1,5 C 93 % 1020,7 hPa 0,4 l/m 0,0 km/h W 0,5 C 1,5 C 0,0 km/h
25.01.2010 02:00 1,6 C 93 % 1020,9 hPa 0,4 l/m 0,0 km/h W 0,6 C 1,6 C 0,0 km/h
25.01.2010 03:00 1,6 C 93 % 1020,9 hPa 0,7 l/m 0,0 km/h W 0,6 C 1,6 C 0,0 km/h
25.01.2010 04:00 1,4 C 93 % 1021,3 hPa 0,4 l/m 0,0 km/h O-SO 0,4 C 1,4 C 0,0 km/h
25.01.2010 05:00 1,4 C 94 % 1021,4 hPa 0,7 l/m 0,0 km/h O-SO 0,5 C 1,4 C 0,0 km/h
25.01.2010 06:00 0,8 C 94 % 1022,0 hPa 0,4 l/m 0,0 km/h SO -0,1 C 0,8 C 0,0 km/h
25.01.2010 07:00 0,6 C 94 % 1022,6 hPa 0,4 l/m 0,0 km/h SO -0,3 C 0,6 C 0,0 km/h
25.01.2010 08:00 0,9 C 95 % 1023,2 hPa 0,0 l/m 0,0 km/h W-NW 0,2 C 0,9 C 0,0 km/h
25.01.2010 09:00 1,6 C 94 % 1023,8 hPa 0,0 l/m 0,0 km/h NW 0,7 C 1,6 C 0,0 km/h
25.01.2010 10:00 1,9 C 94 % 1024,5 hPa 0,4 l/m 0,0 km/h W 1,0 C 1,9 C 0,0 km/h
25.01.2010 11:00 1,9 C 94 % 1024,8 hPa 0,0 l/m 0,0 km/h N-NW 1,0 C 1,9 C 0,0 km/h
25.01.2010 12:00 2,2 C 94 % 1024,8 hPa 0,0 l/m 0,0 km/h N 1,3 C 2,2 C 0,0 km/h
25.01.2010 13:00 2,4 C 91 % 1024,8 hPa 0,0 l/m 0,0 km/h N 1,1 C 2,4 C 0,0 km/h
25.01.2010 14:00 2,5 C 90 % 1025,0 hPa 0,0 l/m 0,0 km/h NW 1,0 C 2,5 C 0,0 km/h
25.01.2010 15:00 2,4 C 90 % 1025,4 hPa 0,0 l/m 0,0 km/h N 0,9 C 2,4 C 0,0 km/h
25.01.2010 16:00 1,9 C 90 % 1026,0 hPa 0,0 l/m 0,0 km/h N-NO 0,4 C 1,9 C 0,0 km/h
25.01.2010 17:00 1,6 C 91 % 1026,5 hPa 0,0 l/m 0,0 km/h N 0,3 C 1,6 C 0,0 km/h
25.01.2010 18:00 1,4 C 90 % 1026,9 hPa 0,0 l/m 0,0 km/h N -0,1 C 1,4 C 0,0 km/h
25.01.2010 19:00 1,1 C 89 % 1027,7 hPa 0,0 l/m 0,0 km/h NW -0,5 C 1,1 C 0,0 km/h
25.01.2010 20:00 0,7 C 89 % 1028,2 hPa 0,0 l/m 0,0 km/h N-NO -0,9 C 0,7 C 0,0 km/h
25.01.2010 21:00 0,5 C 89 % 1028,6 hPa 0,0 l/m 3,6 km/h N -1,1 C 0,5 C 3,6 km/h
25.01.2010 22:00 0,4 C 88 % 1028,7 hPa 0,0 l/m 0,0 km/h NW -1,3 C 0,4 C 0,0 km/h
25.01.2010 23:00 0,3 C 89 % 1029,3 hPa 0,0 l/m 0,0 km/h N-NO -1,3 C 0,3 C 0,0 km/h
26.01.2010 00:00 0,2 C 89 % 1029,1 hPa 0,0 l/m 1,1 km/h N-NO -1,4 C 0,2 C 1,1 km/h
26.01.2010 01:00 -0,1 C 90 % 1029,0 hPa 0,0 l/m 0,0 km/h S-SW -1,5 C -0,1 C 0,0 km/h
26.01.2010 02:00 -0,1 C 91 % 1028,7 hPa 0,0 l/m 0,0 km/h W-SW -1,4 C -0,1 C 0,0 km/h
26.01.2010 03:00 -0,2 C 91 % 1028,7 hPa 0,0 l/m 0,0 km/h W-SW -1,5 C -0,2 C 0,0 km/h
26.01.2010 04:00 -0,2 C 92 % 1028,8 hPa 0,0 l/m 0,0 km/h W-SW -1,3 C -0,2 C 0,0 km/h
26.01.2010 05:00 -0,5 C 92 % 1028,7 hPa 0,0 l/m 0,0 km/h W-SW -1,6 C -0,5 C 0,0 km/h
26.01.2010 06:00 -0,5 C 92 % 1028,9 hPa 0,0 l/m 0,0 km/h W-SW -1,6 C -0,5 C 0,0 km/h
26.01.2010 07:00 -0,6 C 92 % 1029,1 hPa 0,0 l/m 0,0 km/h W-SW -1,7 C -0,6 C 0,0 km/h
26.01.2010 08:00 -0,7 C 92 % 1029,1 hPa 0,0 l/m 0,0 km/h W-SW -1,8 C -0,7 C 0,0 km/h
26.01.2010 09:00 -0,4 C 91 % 1029,1 hPa 0,0 l/m 0,0 km/h W-SW -1,7 C -0,4 C 0,0 km/h
26.01.2010 10:00 0,1 C 89 % 1028,9 hPa 0,0 l/m 0,0 km/h W-SW -1,5 C 0,1 C 0,0 km/h
26.01.2010 11:00 0,5 C 87 % 1028,8 hPa 0,0 l/m 0,0 km/h W-SW -1,4 C 0,5 C 0,0 km/h
26.01.2010 12:00 0,8 C 85 % 1028,5 hPa 0,0 l/m 0,0 km/h W -1,4 C 0,8 C 0,0 km/h
26.01.2010 13:00 0,2 C 84 % 1028,0 hPa 0,0 l/m 0,0 km/h W -2,2 C 0,2 C 0,0 km/h
26.01.2010 14:00 -0,5 C 86 % 1027,9 hPa 0,0 l/m 0,0 km/h W -2,5 C -0,5 C 0,0 km/h
26.01.2010 15:00 -0,4 C 82 % 1028,3 hPa 0,0 l/m 0,0 km/h W -3,1 C -0,4 C 0,0 km/h
26.01.2010 16:00 -0,7 C 81 % 1028,9 hPa 0,0 l/m 1,4 km/h W -3,5 C -0,7 C 1,4 km/h
26.01.2010 17:00 -1,3 C 80 % 1029,7 hPa 0,0 l/m 0,0 km/h W -4,3 C -1,3 C 0,0 km/h
26.01.2010 18:00 -1,8 C 80 % 1030,1 hPa 0,0 l/m 1,4 km/h W -4,8 C -1,8 C 1,4 km/h
26.01.2010 19:00 -2,3 C 77 % 1030,2 hPa 0,0 l/m 0,0 km/h W -5,8 C -2,3 C 0,0 km/h
26.01.2010 20:00 -2,4 C 77 % 1030,0 hPa 0,0 l/m 0,0 km/h W -5,9 C -2,4 C 0,0 km/h
26.01.2010 21:00 -3,0 C 79 % 1030,4 hPa 0,0 l/m 0,0 km/h W -6,1 C -3,0 C 0,0 km/h
26.01.2010 22:00 -2,8 C 78 % 1030,5 hPa 0,0 l/m 0,0 km/h W -6,1 C -2,8 C 0,0 km/h
26.01.2010 23:00 -3,6 C 80 % 1030,1 hPa 0,0 l/m 0,0 km/h W -6,5 C -3,6 C 0,0 km/h
27.01.2010 00:00 -3,7 C 80 % 1029,8 hPa 0,0 l/m 0,0 km/h W -6,6 C -3,7 C 0,0 km/h
27.01.2010 01:00 -4,3 C 81 % 1029,5 hPa 0,0 l/m 0,0 km/h W -7,1 C -4,3 C 0,0 km/h
27.01.2010 02:00 -4,3 C 82 % 1029,4 hPa 0,0 l/m 0,0 km/h W -6,9 C -4,3 C 0,0 km/h
27.01.2010 03:00 -4,7 C 83 % 1029,0 hPa 0,0 l/m 0,0 km/h W -7,1 C -4,7 C 0,0 km/h
27.01.2010 04:00 -5,4 C 83 % 1028,8 hPa 0,0 l/m 0,0 km/h W -7,8 C -5,4 C 0,0 km/h
27.01.2010 05:00 -5,9 C 85 % 1028,5 hPa 0,0 l/m 0,0 km/h W -8,0 C -5,9 C 0,0 km/h
27.01.2010 06:00 -6,8 C 88 % 1028,6 hPa 0,0 l/m 0,0 km/h W -8,4 C -6,8 C 0,0 km/h
27.01.2010 07:00 -7,4 C 89 % 1028,8 hPa 0,0 l/m 0,0 km/h W -8,9 C -7,4 C 0,0 km/h
27.01.2010 08:00 -7,5 C 90 % 1028,8 hPa 0,0 l/m 0,0 km/h W -8,8 C -7,5 C 0,0 km/h
27.01.2010 09:00 -5,4 C 88 % 1028,5 hPa 0,0 l/m 0,0 km/h W -7,1 C -5,4 C 0,0 km/h
27.01.2010 10:00 -5,6 C 87 % 1028,5 hPa 0,0 l/m 1,4 km/h W -7,4 C -5,6 C 1,4 km/h
27.01.2010 11:00 -3,1 C 82 % 1027,9 hPa 0,0 l/m 0,0 km/h W -5,7 C -3,1 C 0,0 km/h
27.01.2010 12:00 -1,8 C 78 % 1026,8 hPa 0,0 l/m 0,0 km/h W -5,1 C -1,8 C 0,0 km/h
27.01.2010 13:00 -1,6 C 78 % 1025,3 hPa 0,0 l/m 0,0 km/h W -4,9 C -1,6 C 0,0 km/h
27.01.2010 14:00 0,1 C 72 % 1024,4 hPa 0,0 l/m 0,0 km/h W -4,3 C 0,1 C 0,0 km/h
27.01.2010 15:00 -1,5 C 75 % 1024,9 hPa 0,0 l/m 0,0 km/h W -5,3 C -1,5 C 0,0 km/h
27.01.2010 16:00 -2,9 C 80 % 1023,7 hPa 0,0 l/m 0,0 km/h W -5,9 C -2,9 C 0,0 km/h
27.01.2010 17:00 -3,1 C 82 % 1022,6 hPa 0,0 l/m 9,7 km/h W -5,7 C -6,6 C 9,7 km/h
27.01.2010 18:00 -3,4 C 84 % 1022,3 hPa 0,0 l/m 0,0 km/h W -5,7 C -3,4 C 0,0 km/h
27.01.2010 19:00 -3,1 C 84 % 1021,4 hPa 0,0 l/m 7,2 km/h W -5,4 C -4,0 C 7,2 km/h
27.01.2010 20:00 -2,9 C 83 % 1020,0 hPa 0,0 l/m 0,0 km/h W -5,4 C -2,9 C 0,0 km/h
27.01.2010 21:00 -2,9 C 83 % 1018,9 hPa 0,0 l/m 0,0 km/h W -5,4 C -2,9 C 0,0 km/h
27.01.2010 22:00 -2,7 C 83 % 1017,6 hPa 0,0 l/m 0,0 km/h W -5,2 C -2,7 C 0,0 km/h
27.01.2010 23:00 -2,1 C 82 % 1016,1 hPa 0,0 l/m 0,0 km/h W -4,7 C -2,1 C 0,0 km/h
28.01.2010 00:00 -1,4 C 77 % 1015,2 hPa 0,0 l/m 14,0 km/h W -4,9 C -8,0 C 14,0 km/h
28.01.2010 01:00 -1,4 C 79 % 1013,8 hPa 0,0 l/m 14,4 km/h W -4,6 C -8,3 C 14,4 km/h
28.01.2010 02:00 -1,4 C 79 % 1013,6 hPa 0,0 l/m 14,8 km/h W -4,6 C -8,6 C 14,8 km/h
28.01.2010 03:00 -1,7 C 81 % 1011,8 hPa 0,0 l/m 17,3 km/h W -4,5 C -10,4 C 17,3 km/h
28.01.2010 04:00 -1,5 C 80 % 1011,4 hPa 0,0 l/m 15,1 km/h W -4,5 C -8,9 C 15,1 km/h
28.01.2010 05:00 -1,2 C 77 % 1011,2 hPa 0,0 l/m 14,8 km/h W -4,7 C -8,3 C 14,8 km/h
28.01.2010 06:00 -1,4 C 80 % 1011,1 hPa 0,0 l/m 23,8 km/h W -4,4 C -13,1 C 23,8 km/h
28.01.2010 07:00 -1,7 C 85 % 1010,8 hPa 0,0 l/m 11,9 km/h W -3,9 C -6,9 C 11,9 km/h
28.01.2010 08:00 -1,4 C 83 % 1010,3 hPa 0,0 l/m 11,9 km/h W -3,9 C -6,5 C 11,9 km/h
28.01.2010 09:00 -1,1 C 81 % 1010,5 hPa 0,0 l/m 10,1 km/h W -3,9 C -4,8 C 10,1 km/h
28.01.2010 10:00 -0,7 C 80 % 1010,5 hPa 0,0 l/m 14,0 km/h S-SW -3,7 C -7,2 C 14,0 km/h
28.01.2010 11:00 -0,3 C 78 % 1010,2 hPa 0,0 l/m 19,1 km/h W -3,7 C -9,6 C 19,1 km/h
28.01.2010 12:00 -0,2 C 78 % 1009,4 hPa 0,0 l/m 19,1 km/h SW -3,6 C -9,5 C 19,1 km/h
28.01.2010 13:00 -0,5 C 82 % 1008,9 hPa 0,0 l/m 13,0 km/h W-SW -3,2 C -6,3 C 13,0 km/h
28.01.2010 14:00 -0,5 C 84 % 1008,7 hPa 0,0 l/m 13,3 km/h SW -2,9 C -6,5 C 13,3 km/h
28.01.2010 15:00 -0,1 C 84 % 1008,0 hPa 0,0 l/m 12,6 km/h W-SW -2,5 C -5,5 C 12,6 km/h
28.01.2010 16:00 -0,1 C 82 % 1007,9 hPa 0,0 l/m 11,5 km/h W-SW -2,8 C -4,7 C 11,5 km/h
28.01.2010 17:00 -0,1 C 84 % 1007,4 hPa 0,0 l/m 14,0 km/h SW -2,5 C -6,5 C 14,0 km/h
28.01.2010 18:00 -0,1 C 85 % 1007,3 hPa 0,0 l/m 11,5 km/h SW -2,3 C -4,7 C 11,5 km/h
28.01.2010 19:00 0,1 C 86 % 1006,9 hPa 0,0 l/m 15,5 km/h S-SW -2,0 C -7,2 C 15,5 km/h
28.01.2010 20:00 0,3 C 86 % 1006,3 hPa 0,0 l/m 11,2 km/h SW -1,8 C -4,1 C 11,2 km/h
28.01.2010 21:00 0,3 C 87 % 1006,0 hPa 0,0 l/m 14,0 km/h S -1,6 C -6,0 C 14,0 km/h
28.01.2010 22:00 0,4 C 87 % 1005,3 hPa 0,0 l/m 11,9 km/h S-SW -1,5 C -4,5 C 11,9 km/h
28.01.2010 23:00 0,5 C 86 % 1004,8 hPa 0,0 l/m 12,2 km/h W-SW -1,6 C -4,6 C 12,2 km/h
29.01.2010 00:00 0,7 C 87 % 1004,2 hPa 0,0 l/m 13,7 km/h W-SW -1,2 C -5,3 C 13,7 km/h
29.01.2010 01:00 0,6 C 88 % 1003,1 hPa 0,0 l/m 14,8 km/h SW -1,2 C -6,1 C 14,8 km/h
29.01.2010 02:00 0,7 C 87 % 1002,4 hPa 0,0 l/m 10,8 km/h S-SW -1,2 C -3,3 C 10,8 km/h
29.01.2010 03:00 0,9 C 85 % 1001,4 hPa 0,0 l/m 16,6 km/h SW -1,3 C -6,8 C 16,6 km/h
29.01.2010 04:00 0,9 C 86 % 1000,1 hPa 0,0 l/m 14,8 km/h W-SW -1,2 C -5,8 C 14,8 km/h
29.01.2010 05:00 1,1 C 84 % 999,6 hPa 0,0 l/m 12,6 km/h SW -1,3 C -4,1 C 12,6 km/h
29.01.2010 06:00 1,2 C 83 % 998,3 hPa 0,0 l/m 8,6 km/h S-SW -1,4 C -0,9 C 8,6 km/h
29.01.2010 07:00 1,2 C 84 % 997,4 hPa 0,0 l/m 18,4 km/h S-SW -1,2 C -7,3 C 18,4 km/h
29.01.2010 08:00 1,6 C 82 % 996,7 hPa 0,0 l/m 19,1 km/h SW -1,1 C -7,2 C 19,1 km/h
29.01.2010 09:00 1,6 C 85 % 995,9 hPa 0,0 l/m 20,2 km/h S-SW -0,6 C -7,7 C 20,2 km/h
29.01.2010 10:00 2,4 C 81 % 994,8 hPa 0,0 l/m 27,0 km/h S-SW -0,5 C -9,1 C 27,0 km/h
29.01.2010 11:00 1,9 C 86 % 993,5 hPa 0,0 l/m 22,0 km/h SW -0,2 C -8,0 C 22,0 km/h
29.01.2010 12:00 2,6 C 81 % 991,8 hPa 0,0 l/m 14,8 km/h SW -0,3 C -3,7 C 14,8 km/h
29.01.2010 13:00 3,1 C 79 % 990,2 hPa 0,0 l/m 19,8 km/h S-SW -0,2 C -5,5 C 19,8 km/h
29.01.2010 14:00 2,9 C 81 % 988,6 hPa 0,0 l/m 28,4 km/h SW -0,0 C -8,9 C 28,4 km/h
29.01.2010 15:00 2,9 C 80 % 987,4 hPa 0,0 l/m 10,8 km/h SW -0,2 C -0,8 C 10,8 km/h
29.01.2010 16:00 3,0 C 81 % 986,0 hPa 0,0 l/m 22,0 km/h SW 0,1 C -6,6 C 22,0 km/h
29.01.2010 17:00 3,1 C 83 % 985,3 hPa 0,0 l/m 20,2 km/h SW 0,5 C -5,7 C 20,2 km/h
29.01.2010 18:00 2,9 C 85 % 985,1 hPa 0,0 l/m 23,0 km/h SW 0,6 C -7,1 C 23,0 km/h
29.01.2010 19:00 3,1 C 85 % 984,8 hPa 0,0 l/m 18,4 km/h W-SW 0,8 C -4,9 C 18,4 km/h
29.01.2010 20:00 3,1 C 85 % 984,4 hPa 0,0 l/m 23,0 km/h W-SW 0,8 C -6,8 C 23,0 km/h
29.01.2010 21:00 2,6 C 88 % 985,0 hPa 0,0 l/m 19,8 km/h W-SW 0,8 C -6,2 C 19,8 km/h
29.01.2010 22:00 2,3 C 90 % 985,5 hPa 0,0 l/m 19,4 km/h W 0,8 C -6,4 C 19,4 km/h
29.01.2010 23:00 1,6 C 92 % 987,0 hPa 0,7 l/m 9,0 km/h NW 0,4 C -0,9 C 9,0 km/h
30.01.2010 00:00 0,4 C 92 % 987,9 hPa 0,4 l/m 0,0 km/h SW -0,7 C 0,4 C 0,0 km/h
30.01.2010 01:00 0,2 C 93 % 988,6 hPa 0,0 l/m 0,0 km/h S-SW -0,8 C 0,2 C 0,0 km/h
30.01.2010 02:00 0,1 C 93 % 989,7 hPa 0,0 l/m 0,0 km/h W -0,9 C 0,1 C 0,0 km/h
30.01.2010 03:00 0,1 C 94 % 990,2 hPa 0,0 l/m 0,0 km/h W -0,7 C 0,1 C 0,0 km/h
30.01.2010 04:00 -0,1 C 94 % 990,9 hPa 0,0 l/m 0,0 km/h W -0,9 C -0,1 C 0,0 km/h
30.01.2010 05:00 -0,4 C 94 % 991,8 hPa 0,0 l/m 0,0 km/h W -1,2 C -0,4 C 0,0 km/h
30.01.2010 06:00 -1,6 C 93 % 992,2 hPa 0,0 l/m 0,0 km/h W -2,6 C -1,6 C 0,0 km/h
30.01.2010 07:00 -1,6 C 94 % 992,9 hPa 0,0 l/m 0,0 km/h W -2,4 C -1,6 C 0,0 km/h
30.01.2010 08:00 -1,4 C 94 % 993,3 hPa 0,0 l/m 0,0 km/h W -2,2 C -1,4 C 0,0 km/h
30.01.2010 09:00 -0,7 C 93 % 994,0 hPa 0,0 l/m 0,0 km/h W -1,7 C -0,7 C 0,0 km/h
30.01.2010 10:00 -0,7 C 93 % 994,8 hPa 0,0 l/m 0,0 km/h W -1,7 C -0,7 C 0,0 km/h
30.01.2010 11:00 0,3 C 87 % 995,0 hPa 0,0 l/m 0,0 km/h SW -1,6 C 0,3 C 0,0 km/h
30.01.2010 12:00 0,1 C 85 % 994,7 hPa 0,0 l/m 11,2 km/h SW -2,1 C -4,3 C 11,2 km/h
30.01.2010 13:00 -0,1 C 83 % 994,4 hPa 0,0 l/m 12,2 km/h W-SW -2,6 C -5,3 C 12,2 km/h
30.01.2010 14:00 1,4 C 77 % 994,4 hPa 0,0 l/m 9,4 km/h W -2,2 C -1,4 C 9,4 km/h
30.01.2010 15:00 -1,2 C 87 % 995,5 hPa 0,0 l/m 1,8 km/h SW -3,1 C -1,2 C 1,8 km/h
30.01.2010 16:00 0,8 C 89 % 995,8 hPa 0,0 l/m 0,0 km/h S-SO -0,8 C 0,8 C 0,0 km/h
30.01.2010 17:00 -3,4 C 88 % 996,6 hPa 0,0 l/m 0,0 km/h S-SO -5,1 C -3,4 C 0,0 km/h
30.01.2010 18:00 -4,8 C 90 % 997,3 hPa 0,0 l/m 0,0 km/h S-SO -6,2 C -4,8 C 0,0 km/h
30.01.2010 19:00 -2,4 C 92 % 998,0 hPa 0,0 l/m 0,0 km/h SW -3,5 C -2,4 C 0,0 km/h
30.01.2010 20:00 -2,2 C 92 % 998,7 hPa 0,0 l/m 0,0 km/h W -3,3 C -2,2 C 0,0 km/h
30.01.2010 21:00 -2,3 C 92 % 999,4 hPa 0,0 l/m 0,0 km/h W-SW -3,4 C -2,3 C 0,0 km/h
30.01.2010 22:00 -2,7 C 92 % 1000,2 hPa 0,0 l/m 0,0 km/h W-NW -3,8 C -2,7 C 0,0 km/h
30.01.2010 23:00 -2,8 C 92 % 1001,0 hPa 0,0 l/m 0,0 km/h W -3,9 C -2,8 C 0,0 km/h
31.01.2010 00:00 -4,4 C 92 % 1001,5 hPa 0,0 l/m 0,0 km/h O-SO -5,5 C -4,4 C 0,0 km/h
31.01.2010 01:00 -6,7 C 92 % 1001,8 hPa 0,0 l/m 0,0 km/h O-SO -7,8 C -6,7 C 0,0 km/h
31.01.2010 02:00 -7,7 C 92 % 1002,2 hPa 0,0 l/m 0,0 km/h O-SO -8,8 C -7,7 C 0,0 km/h
31.01.2010 03:00 -6,6 C 93 % 1003,0 hPa 0,0 l/m 0,0 km/h O-SO -7,5 C -6,6 C 0,0 km/h
31.01.2010 04:00 -9,6 C 92 % 1003,3 hPa 0,0 l/m 0,0 km/h O-SO -10,6 C -9,6 C 0,0 km/h
31.01.2010 05:00 -7,9 C 93 % 1003,4 hPa 0,0 l/m 0,0 km/h O-SO -8,8 C -7,9 C 0,0 km/h
31.01.2010 06:00 -7,4 C 92 % 1003,9 hPa 0,0 l/m 0,0 km/h O-SO -8,5 C -7,4 C 0,0 km/h
31.01.2010 07:00 -6,9 C 92 % 1004,2 hPa 0,0 l/m 0,0 km/h O-SO -8,0 C -6,9 C 0,0 km/h
31.01.2010 08:00 -4,6 C 93 % 1005,0 hPa 0,0 l/m 0,0 km/h O-SO -5,6 C -4,6 C 0,0 km/h
31.01.2010 09:00 -3,1 C 93 % 1005,1 hPa 0,0 l/m 0,0 km/h W-SW -4,1 C -3,1 C 0,0 km/h
31.01.2010 10:00 -2,7 C 92 % 1005,6 hPa 0,0 l/m 0,0 km/h W -3,8 C -2,7 C 0,0 km/h
31.01.2010 11:00 -1,9 C 90 % 1006,1 hPa 0,0 l/m 0,0 km/h W-SW -3,3 C -1,9 C 0,0 km/h
31.01.2010 12:00 -0,4 C 87 % 1006,2 hPa 0,0 l/m 0,0 km/h O-SO -2,3 C -0,4 C 0,0 km/h
31.01.2010 13:00 -0,2 C 84 % 1006,4 hPa 0,0 l/m 0,0 km/h O-SO -2,6 C -0,2 C 0,0 km/h
31.01.2010 14:00 -0,1 C 84 % 1006,6 hPa 0,0 l/m 0,0 km/h O -2,5 C -0,1 C 0,0 km/h
31.01.2010 15:00 -0,4 C 85 % 1007,1 hPa 0,0 l/m 0,0 km/h O -2,6 C -0,4 C 0,0 km/h
31.01.2010 16:00 -1,6 C 87 % 1007,6 hPa 0,0 l/m 0,0 km/h O -3,5 C -1,6 C 0,0 km/h
31.01.2010 17:00 -2,4 C 89 % 1008,1 hPa 0,0 l/m 0,0 km/h O -4,0 C -2,4 C 0,0 km/h
31.01.2010 18:00 -2,7 C 91 % 1008,5 hPa 0,0 l/m 0,0 km/h O -4,0 C -2,7 C 0,0 km/h
31.01.2010 19:00 -2,7 C 92 % 1009,2 hPa 0,0 l/m 0,0 km/h O -3,8 C -2,7 C 0,0 km/h
31.01.2010 20:00 -3,0 C 92 % 1009,3 hPa 0,0 l/m 0,0 km/h S-SO -4,1 C -3,0 C 0,0 km/h
31.01.2010 21:00 -3,1 C 92 % 1009,9 hPa 0,0 l/m 0,0 km/h O -4,2 C -3,1 C 0,0 km/h
31.01.2010 22:00 -3,1 C 93 % 1009,9 hPa 0,0 l/m 0,0 km/h O-SO -4,1 C -3,1 C 0,0 km/h
31.01.2010 23:00 -3,1 C 93 % 1010,5 hPa 0,0 l/m 0,0 km/h O-SO -4,1 C -3,1 C 0,0 km/h
Min-Datum _ 31.01.10 27.01.10 29.01.10 - 25.01.10 - 31.01.10 28.01.10 25.01.10
_ Min-Zeit 04:53 14:53 20:53 - 00:53 - 04:53 06:53 00:53
Minimum _ -9,6 C 72 % 984,4 hPa - 0,0 km/h - -10,6 C -13,1 C 0,0 km/h
Max-Datum _ 29.01.10 25.01.10 26.01.10 25.01.10 29.01.10 - 25.01.10 25.01.10 29.01.10
_ Max-Zeit 13:53 08:53 22:53 03:53 14:53 - 12:53 14:53 14:53
Maximum _ 3,1 C 95 % 1030,5 hPa 0,7 l/m 28,4 km/h
SW
- 1,3 C 2,5 C 28,4 km/h
SW
Durchschnitt _ -1,0 C 87 % 1011,7 hPa #5,0 l/m 4,9 km/h W -2,9 C -3,1 C 4,9 km/h